Time;durP1;ratioP1;P1;durP2;ratioP2;P2;SDS_P1;SDS_P2;PMS_P1;PMS_P2;Temp;Humidity;BMP_temperature;BMP_pressure;BME280_temperature;BME280_humidity;BME280_pressure;Samples;Min_cycle;Max_cycle;Signal;HPM_P1;HPM_P2
2021/09/08 00:00:48;;;;;;;12.90;10.00;;;14.00;99.90;;;;;;5048060;28;20016;-46
2021/09/08 00:03:13;;;;;;;11.75;9.27;;;13.90;99.90;;;;;;5060782;28;20039;-45
2021/09/08 00:05:39;;;;;;;14.57;9.73;;;13.90;99.90;;;;;;5057537;28;20497;-46
2021/09/08 00:08:05;;;;;;;13.70;9.90;;;13.90;99.90;;;;;;5047714;28;20032;-45
2021/09/08 00:10:30;;;;;;;15.23;10.13;;;13.80;99.90;;;;;;5048400;28;20040;-46
2021/09/08 00:12:56;;;;;;;14.50;10.00;;;13.80;99.90;;;;;;5046780;28;20037;-45
2021/09/08 00:15:22;;;;;;;13.43;10.32;;;13.90;99.90;;;;;;5043055;28;20064;-47
2021/09/08 00:17:47;;;;;;;13.18;10.23;;;13.80;99.90;;;;;;5027762;28;20439;-45
2021/09/08 00:20:15;;;;;;;13.55;10.32;;;13.80;99.90;;;;;;5028441;28;20091;-45
2021/09/08 00:22:40;;;;;;;15.73;10.50;;;13.80;99.90;;;;;;5027019;28;20181;-46
2021/09/08 00:25:07;;;;;;;16.15;10.77;;;13.80;99.90;;;;;;5027153;28;20076;-45
2021/09/08 00:27:33;;;;;;;20.08;10.88;;;13.80;99.90;;;;;;5027860;28;20025;-45
2021/09/08 00:29:58;;;;;;;15.93;11.02;;;13.80;99.90;;;;;;5040409;28;20107;-45
2021/09/08 00:32:24;;;;;;;14.30;10.20;;;13.70;99.90;;;;;;5060004;28;20025;-47
2021/09/08 00:34:49;;;;;;;14.40;10.10;;;13.70;99.90;;;;;;5066948;28;20327;-45
2021/09/08 00:37:15;;;;;;;17.02;11.15;;;13.70;99.90;;;;;;5052811;28;20516;-48
2021/09/08 00:39:41;;;;;;;16.92;11.50;;;13.70;99.90;;;;;;5050831;28;20087;-45
2021/09/08 00:42:14;;;;;;;16.85;11.38;;;13.70;99.90;;;;;;5052479;28;20071;-48
2021/09/08 00:44:41;;;;;;;18.80;12.05;;;13.70;99.90;;;;;;5051487;28;20035;-45
2021/09/08 00:47:06;;;;;;;23.23;12.65;;;13.70;99.90;;;;;;5040467;28;20036;-48
2021/09/08 00:49:32;;;;;;;16.58;11.48;;;13.60;99.90;;;;;;5032105;28;20025;-45
2021/09/08 00:52:03;;;;;;;18.17;12.40;;;13.60;99.90;;;;;;5030847;28;20045;-45
2021/09/08 00:54:29;;;;;;;16.25;10.52;;;13.60;99.90;;;;;;5031897;28;20026;-45
2021/09/08 00:56:55;;;;;;;15.57;11.32;;;13.50;99.90;;;;;;5035998;28;20132;-47
2021/09/08 00:59:20;;;;;;;18.52;12.10;;;13.40;99.90;;;;;;5046418;28;20034;-47
2021/09/08 01:01:47;;;;;;;13.98;10.48;;;13.40;99.90;;;;;;5057212;28;20032;-48
2021/09/08 01:04:16;;;;;;;16.30;11.27;;;13.40;99.90;;;;;;5070232;28;20032;-47
2021/09/08 01:06:42;;;;;;;14.82;11.07;;;13.40;99.90;;;;;;5068126;28;20390;-48
2021/09/08 01:09:08;;;;;;;15.30;10.57;;;13.30;99.90;;;;;;5051339;28;20090;-45
2021/09/08 01:11:34;;;;;;;18.33;11.40;;;13.30;99.90;;;;;;5051504;28;20057;-46
2021/09/08 01:14:00;;;;;;;16.90;11.68;;;13.30;99.90;;;;;;5050058;28;20175;-46
2021/09/08 01:16:26;;;;;;;17.67;12.70;;;13.30;99.90;;;;;;5050589;28;20488;-46
2021/09/08 01:18:52;;;;;;;17.23;11.63;;;13.30;99.90;;;;;;5034031;28;20029;-48
2021/09/08 01:21:17;;;;;;;16.90;11.98;;;13.30;99.90;;;;;;5031545;28;20068;-45
2021/09/08 01:23:43;;;;;;;18.45;11.35;;;13.30;99.90;;;;;;5032428;28;20025;-45
2021/09/08 01:26:09;;;;;;;16.25;11.07;;;13.30;99.90;;;;;;5031202;28;20035;-47
2021/09/08 01:28:35;;;;;;;15.25;11.57;;;13.20;99.90;;;;;;5043022;28;20506;-46
2021/09/08 01:31:04;;;;;;;18.05;11.80;;;13.20;99.90;;;;;;5050891;28;20039;-45
2021/09/08 01:33:30;;;;;;;14.50;10.77;;;13.10;99.90;;;;;;5065867;28;20486;-46
2021/09/08 01:35:56;;;;;;;18.70;11.80;;;13.20;99.90;;;;;;5071103;28;20060;-45
2021/09/08 01:38:21;;;;;;;14.52;10.52;;;13.20;99.90;;;;;;5050576;28;20338;-45
2021/09/08 01:40:47;;;;;;;14.98;10.70;;;13.10;99.90;;;;;;5031108;28;20075;-45
2021/09/08 01:43:12;;;;;;;13.90;10.65;;;13.10;99.90;;;;;;5031036;28;20041;-45
2021/09/08 01:45:39;;;;;;;13.80;10.60;;;13.10;99.90;;;;;;5030861;28;20021;-45
2021/09/08 01:48:05;;;;;;;17.10;11.15;;;13.10;99.90;;;;;;5030372;28;20017;-45
2021/09/08 01:50:31;;;;;;;16.25;10.98;;;13.10;99.90;;;;;;5031323;28;20391;-47
2021/09/08 01:52:56;;;;;;;17.00;10.35;;;13.00;99.90;;;;;;5029789;28;20052;-45
2021/09/08 01:55:22;;;;;;;15.65;10.75;;;13.00;99.90;;;;;;5031031;28;20026;-45
2021/09/08 01:57:48;;;;;;;14.98;10.50;;;13.00;99.90;;;;;;5028888;28;20033;-46
2021/09/08 02:00:15;;;;;;;15.07;10.57;;;13.00;99.90;;;;;;5045672;28;20025;-45
2021/09/08 02:02:41;;;;;;;16.95;11.20;;;12.90;99.90;;;;;;5062336;28;20027;-44
2021/09/08 02:05:08;;;;;;;14.05;10.23;;;12.90;99.90;;;;;;5070873;28;20479;-45
2021/09/08 02:07:34;;;;;;;14.70;10.65;;;12.90;99.90;;;;;;5070560;28;20028;-46
2021/09/08 02:10:00;;;;;;;14.48;10.75;;;12.80;99.90;;;;;;5054746;28;20380;-47
2021/09/08 02:12:25;;;;;;;18.50;11.93;;;12.90;99.90;;;;;;5050148;28;20166;-45
2021/09/08 02:14:51;;;;;;;17.65;11.40;;;12.90;99.90;;;;;;5050515;28;20033;-45
2021/09/08 02:17:16;;;;;;;16.58;10.63;;;12.90;99.90;;;;;;5050001;28;20484;-45
2021/09/08 02:19:42;;;;;;;14.60;10.68;;;12.90;99.90;;;;;;5040975;28;20115;-46
2021/09/08 02:22:07;;;;;;;13.88;10.32;;;12.90;99.90;;;;;;5030806;28;20029;-46
2021/09/08 02:24:33;;;;;;;16.13;10.30;;;12.80;99.90;;;;;;5030525;28;20394;-46
2021/09/08 02:26:59;;;;;;;13.40;10.23;;;12.80;99.90;;;;;;5029671;28;20047;-45
2021/09/08 02:29:24;;;;;;;13.55;9.63;;;12.70;99.90;;;;;;5030285;28;20025;-46
2021/09/08 02:31:50;;;;;;;16.42;11.02;;;12.70;99.90;;;;;;5057057;28;20032;-46
2021/09/08 02:34:15;;;;;;;16.13;10.13;;;12.70;99.90;;;;;;5070234;28;20024;-46
2021/09/08 02:36:41;;;;;;;13.25;9.85;;;12.60;99.90;;;;;;5069405;28;20036;-46
2021/09/08 02:39:07;;;;;;;14.70;10.40;;;12.60;99.90;;;;;;5069967;28;20107;-45
2021/09/08 02:41:33;;;;;;;13.18;9.95;;;12.60;99.90;;;;;;5049630;28;20741;-46
2021/09/08 02:43:58;;;;;;;16.63;10.52;;;12.60;99.90;;;;;;5050094;28;20402;-45
2021/09/08 02:46:24;;;;;;;16.30;11.18;;;12.50;99.90;;;;;;5047713;28;20021;-45
2021/09/08 02:48:49;;;;;;;14.48;10.90;;;12.50;99.90;;;;;;5049909;28;20100;-45
2021/09/08 02:51:15;;;;;;;14.55;10.80;;;12.40;99.90;;;;;;5049138;28;20100;-45
2021/09/08 02:53:41;;;;;;;21.58;12.25;;;12.40;99.90;;;;;;5048329;28;20086;-45
2021/09/08 02:56:06;;;;;;;15.90;11.20;;;12.40;99.90;;;;;;5049435;28;20036;-46
2021/09/08 02:58:32;;;;;;;15.38;10.55;;;12.40;99.90;;;;;;5049161;28;20025;-46
2021/09/08 03:00:58;;;;;;;13.75;10.50;;;12.40;99.90;;;;;;5042492;28;20225;-45
2021/09/08 03:03:24;;;;;;;17.92;11.38;;;12.30;99.90;;;;;;5055496;28;20275;-45
2021/09/08 03:05:50;;;;;;;17.40;11.60;;;12.40;99.90;;;;;;5049304;28;20120;-44
2021/09/08 03:08:16;;;;;;;15.85;10.40;;;12.30;99.90;;;;;;5048651;28;20025;-45
2021/09/08 03:10:43;;;;;;;18.58;11.95;;;12.30;99.90;;;;;;5048701;28;20017;-46
2021/09/08 03:13:14;;;;;;;18.27;11.82;;;12.30;99.90;;;;;;5047527;28;20036;-48
2021/09/08 03:15:40;;;;;;;;;;;12.30;99.90;;;;;;5049352;28;20033;-45
2021/09/08 03:18:06;;;;;;;19.05;11.68;;;12.30;99.90;;;;;;5048328;28;20669;-45
2021/09/08 03:20:32;;;;;;;18.45;12.85;;;12.30;99.90;;;;;;5048751;28;20032;-45
2021/09/08 03:22:58;;;;;;;20.17;12.13;;;12.30;99.90;;;;;;5047712;28;20052;-45
2021/09/08 03:25:24;;;;;;;15.93;11.57;;;12.40;99.90;;;;;;5049116;28;20391;-45
2021/09/08 03:27:49;;;;;;;17.42;12.60;;;12.40;99.90;;;;;;5048687;28;20029;-44
2021/09/08 03:30:15;;;;;;;18.42;12.95;;;12.40;99.90;;;;;;5044959;28;20017;-44
2021/09/08 03:32:40;;;;;;;22.75;13.23;;;12.40;99.90;;;;;;5060200;28;20162;-45
2021/09/08 03:35:06;;;;;;;19.20;12.65;;;12.40;99.90;;;;;;5069074;28;20025;-47
2021/09/08 03:37:32;;;;;;;21.55;13.55;;;12.40;99.90;;;;;;5068286;28;20021;-47
2021/09/08 03:39:57;;;;;;;21.15;13.13;;;12.40;99.90;;;;;;5068820;28;20028;-45
2021/09/08 03:42:24;;;;;;;19.65;12.88;;;12.40;99.90;;;;;;5058209;28;20032;-46
2021/09/08 03:44:50;;;;;;;22.27;14.27;;;12.30;99.90;;;;;;5048592;28;20479;-46
2021/09/08 03:47:16;;;;;;;19.83;13.10;;;12.30;99.90;;;;;;5047964;28;20039;-46
2021/09/08 03:49:45;;;;;;;21.13;14.18;;;12.30;99.90;;;;;;5048695;28;20474;-45
2021/09/08 03:52:15;;;;;;;19.80;13.85;;;12.30;99.90;;;;;;5043239;28;20033;-46
2021/09/08 03:54:41;;;;;;;17.67;12.45;;;12.30;99.90;;;;;;5028844;28;20058;-47
2021/09/08 03:57:07;;;;;;;19.08;12.98;;;12.20;99.90;;;;;;5026860;28;20029;-45
2021/09/08 03:59:36;;;;;;;21.83;12.95;;;12.20;99.90;;;;;;5028432;28;20029;-46
2021/09/08 04:02:02;;;;;;;20.55;13.73;;;12.20;99.90;;;;;;5056565;28;20021;-46
2021/09/08 04:04:27;;;;;;;19.17;12.20;;;12.10;99.90;;;;;;5047185;28;20372;-45
2021/09/08 04:06:53;;;;;;;22.67;12.63;;;12.10;99.90;;;;;;5047909;28;20029;-45
2021/09/08 04:09:18;;;;;;;16.38;11.18;;;12.10;99.90;;;;;;5048626;28;20104;-47
2021/09/08 04:11:44;;;;;;;18.17;12.75;;;12.10;99.90;;;;;;5048360;28;20032;-47
2021/09/08 04:14:10;;;;;;;21.55;13.05;;;12.00;99.90;;;;;;5032164;28;20038;-45
2021/09/08 04:16:36;;;;;;;22.15;13.02;;;12.00;99.90;;;;;;5027692;28;20491;-47
2021/09/08 04:19:02;;;;;;;23.25;13.23;;;12.00;99.90;;;;;;5027183;28;20140;-45
2021/09/08 04:21:27;;;;;;;21.27;14.43;;;12.00;99.90;;;;;;5028463;28;20034;-46
2021/09/08 04:23:53;;;;;;;17.98;13.35;;;12.00;99.90;;;;;;5039274;28;20513;-46
2021/09/08 04:26:19;;;;;;;19.05;12.85;;;12.00;99.90;;;;;;5047621;28;20036;-46
2021/09/08 04:28:44;;;;;;;17.92;11.98;;;12.00;99.90;;;;;;5047986;28;20032;-46
2021/09/08 04:31:10;;;;;;;24.85;14.27;;;11.90;99.90;;;;;;5048572;28;20487;-46
2021/09/08 04:33:35;;;;;;;20.98;13.07;;;11.90;99.90;;;;;;5055784;28;20033;-49
2021/09/08 04:36:01;;;;;;;19.15;13.02;;;11.90;99.90;;;;;;5047974;28;20222;-46
2021/09/08 04:38:27;;;;;;;19.48;13.48;;;11.80;99.90;;;;;;5047806;28;20041;-46
2021/09/08 04:40:52;;;;;;;22.10;13.63;;;11.80;99.90;;;;;;5048488;28;20529;-48
2021/09/08 04:43:18;;;;;;;20.65;15.32;;;11.80;99.90;;;;;;5047291;28;20431;-46
2021/09/08 04:45:43;;;;;;;23.10;15.00;;;11.90;99.90;;;;;;5028016;28;20036;-45
2021/09/08 04:48:09;;;;;;;21.27;12.98;;;11.80;99.90;;;;;;5027901;28;20022;-46
2021/09/08 04:50:35;;;;;;;21.95;13.65;;;11.80;99.90;;;;;;5028052;28;20109;-46
2021/09/08 04:53:00;;;;;;;17.75;12.40;;;11.80;99.90;;;;;;5047355;28;20032;-46
2021/09/08 04:55:26;;;;;;;19.45;13.05;;;11.80;99.90;;;;;;5047894;28;20039;-46
2021/09/08 04:57:52;;;;;;;18.15;12.85;;;11.80;99.90;;;;;;5047275;28;20433;-46
2021/09/08 05:00:17;;;;;;;19.85;13.70;;;11.70;99.90;;;;;;5044082;28;20036;-47
2021/09/08 05:02:43;;;;;;;25.10;14.43;;;11.80;99.90;;;;;;5047450;28;20412;-45
2021/09/08 05:05:08;;;;;;;20.40;13.43;;;11.70;99.90;;;;;;5046604;28;20033;-46
2021/09/08 05:07:34;;;;;;;25.42;14.30;;;11.80;99.90;;;;;;5055717;28;20013;-49
2021/09/08 05:09:59;;;;;;;19.90;13.40;;;11.80;99.90;;;;;;5059182;28;20086;-46
2021/09/08 05:12:25;;;;;;;22.00;14.45;;;11.80;99.90;;;;;;5057298;28;20276;-49
2021/09/08 05:14:50;;;;;;;19.92;14.00;;;11.80;99.90;;;;;;5047320;28;20037;-46
2021/09/08 05:17:16;;;;;;;21.30;14.43;;;11.80;99.90;;;;;;5039620;28;20216;-46
2021/09/08 05:19:41;;;;;;;19.30;13.93;;;11.90;99.90;;;;;;5059176;28;20024;-47
2021/09/08 05:22:07;;;;;;;23.73;15.23;;;11.90;99.90;;;;;;5062576;28;20549;-48
2021/09/08 05:24:32;;;;;;;26.95;15.95;;;12.00;99.90;;;;;;5050351;28;20099;-48
2021/09/08 05:26:58;;;;;;;27.30;16.08;;;12.00;99.90;;;;;;5060290;28;20021;-47
2021/09/08 05:29:24;;;;;;;22.83;15.90;;;12.00;99.90;;;;;;5059937;28;20018;-46
2021/09/08 05:31:49;;;;;;;24.45;16.20;;;12.10;99.90;;;;;;5062454;28;20100;-46
2021/09/08 05:34:15;;;;;;;27.85;16.23;;;12.10;99.90;;;;;;5038335;28;20116;-48
2021/09/08 05:36:41;;;;;;;24.00;15.98;;;12.10;99.90;;;;;;5029176;28;20025;-47
2021/09/08 05:39:06;;;;;;;23.02;16.23;;;12.20;99.90;;;;;;5030995;28;20109;-46
2021/09/08 05:41:32;;;;;;;27.00;18.38;;;12.20;99.90;;;;;;5031080;28;20514;-45
2021/09/08 05:43:57;;;;;;;24.95;16.02;;;12.30;99.90;;;;;;5041185;28;20033;-46
2021/09/08 05:46:23;;;;;;;26.77;16.60;;;12.30;99.90;;;;;;5049302;28;20031;-45
2021/09/08 05:48:48;;;;;;;24.30;17.17;;;12.30;99.90;;;;;;5056162;28;20020;-46
2021/09/08 05:51:14;;;;;;;23.92;15.70;;;12.40;99.90;;;;;;5065889;28;20039;-45
2021/09/08 05:53:39;;;;;;;23.75;16.25;;;12.40;99.90;;;;;;5053603;28;20486;-45
2021/09/08 05:56:05;;;;;;;23.55;17.00;;;12.40;99.90;;;;;;5049606;28;20033;-44
2021/09/08 05:58:30;;;;;;;27.98;19.30;;;12.50;99.90;;;;;;5049692;28;20051;-46
2021/09/08 06:00:56;;;;;;;31.10;20.38;;;12.50;99.90;;;;;;5049505;28;20035;-45
2021/09/08 06:03:21;;;;;;;26.30;18.65;;;12.60;99.90;;;;;;5048363;28;20124;-46
2021/09/08 06:05:47;;;;;;;26.77;18.45;;;12.60;99.90;;;;;;5058074;28;20085;-45
2021/09/08 06:08:13;;;;;;;30.08;17.50;;;12.60;99.90;;;;;;5049208;28;20025;-46
2021/09/08 06:10:38;;;;;;;27.27;17.95;;;12.70;99.90;;;;;;5050116;28;20025;-47
2021/09/08 06:13:04;;;;;;;31.83;18.58;;;12.70;99.90;;;;;;5048310;28;20414;-46
2021/09/08 06:15:31;;;;;;;27.35;17.40;;;12.80;99.90;;;;;;5049036;28;20052;-45
2021/09/08 06:17:57;;;;;;;28.35;18.33;;;12.80;99.90;;;;;;5055936;28;20104;-45
2021/09/08 06:20:22;;;;;;;27.63;17.65;;;12.90;99.90;;;;;;5063354;28;20455;-45
2021/09/08 06:22:48;;;;;;;24.42;18.05;;;13.00;99.90;;;;;;5068904;28;20020;-45
2021/09/08 06:25:13;;;;;;;29.08;18.52;;;13.00;99.90;;;;;;5055847;28;20498;-48
2021/09/08 06:27:39;;;;;;;29.10;18.90;;;13.10;99.90;;;;;;5032291;28;20036;-46
2021/09/08 06:30:06;;;;;;;31.73;21.08;;;13.20;99.90;;;;;;5029508;28;20113;-46
2021/09/08 06:32:32;;;;;;;33.00;22.92;;;13.30;99.90;;;;;;5045009;28;20014;-45
2021/09/08 06:34:57;;;;;;;42.67;25.38;;;13.40;99.90;;;;;;5057864;28;20471;-46
2021/09/08 06:37:23;;;;;;;29.77;19.83;;;13.50;99.90;;;;;;5069295;28;20036;-46
2021/09/08 06:39:48;;;;;;;38.30;25.80;;;13.50;99.90;;;;;;5068630;28;20035;-47
2021/09/08 06:42:15;;;;;;;29.90;21.17;;;13.60;99.90;;;;;;5054891;28;20057;-46
2021/09/08 06:44:41;;;;;;;37.28;21.80;;;13.70;99.90;;;;;;5049519;28;20083;-45
2021/09/08 06:47:07;;;;;;;31.52;21.38;;;13.80;99.90;;;;;;5051190;28;20467;-48
2021/09/08 06:49:33;;;;;;;37.33;22.92;;;13.90;99.90;;;;;;5058591;28;20058;-45
2021/09/08 06:51:58;;;;;;;28.52;19.73;;;14.00;99.90;;;;;;5058922;28;20044;-45
2021/09/08 06:54:24;;;;;;;39.42;23.00;;;14.10;99.90;;;;;;5043269;28;20097;-46
2021/09/08 06:56:50;;;;;;;27.67;20.63;;;14.20;99.90;;;;;;5055154;28;20493;-46
2021/09/08 06:59:16;;;;;;;35.95;22.10;;;14.30;99.90;;;;;;5053991;28;20033;-47
2021/09/08 07:01:41;;;;;;;32.15;22.63;;;14.50;99.90;;;;;;5052433;28;20463;-46
2021/09/08 07:04:07;;;;;;;32.95;21.42;;;14.60;99.90;;;;;;5068681;28;20078;-47
2021/09/08 07:06:32;;;;;;;30.38;21.17;;;14.70;99.90;;;;;;5068336;28;20016;-46
2021/09/08 07:08:57;;;;;;;32.00;22.02;;;14.80;99.90;;;;;;5069276;28;20622;-47
2021/09/08 07:11:23;;;;;;;33.95;22.65;;;15.00;99.90;;;;;;5069262;28;20024;-48
2021/09/08 07:13:49;;;;;;;29.85;19.52;;;15.10;99.90;;;;;;5048244;28;20466;-48
2021/09/08 07:18:58;;;;;;;30.27;17.77;;;15.30;99.90;;;;;;5057665;28;20151;-46
2021/09/08 07:21:24;;;;;;;26.30;18.23;;;15.50;99.90;;;;;;5069448;28;20052;-47
2021/09/08 07:23:49;;;;;;;21.30;16.15;;;15.80;99.90;;;;;;5052399;28;20065;-45
2021/09/08 07:26:17;;;;;;;24.75;17.00;;;16.40;99.90;;;;;;5049195;28;20029;-48
2021/09/08 07:28:43;;;;;;;20.35;15.48;;;17.00;99.90;;;;;;5048353;28;20059;-45
2021/09/08 07:31:09;;;;;;;18.60;13.90;;;17.40;99.90;;;;;;5048488;28;20450;-45
2021/09/08 07:33:34;;;;;;;21.80;14.32;;;17.50;99.90;;;;;;5051887;28;20037;-46
2021/09/08 07:36:00;;;;;;;24.50;15.80;;;17.50;99.90;;;;;;5048249;28;20025;-47
2021/09/08 07:38:27;;;;;;;26.17;17.15;;;17.60;99.90;;;;;;5047067;28;20025;-45
2021/09/08 07:40:52;;;;;;;27.27;17.00;;;17.50;99.90;;;;;;5046341;28;20498;-45
2021/09/08 07:43:18;;;;;;;24.17;16.60;;;17.50;99.90;;;;;;5045874;28;20059;-47
2021/09/08 07:45:44;;;;;;;24.63;16.45;;;17.50;99.90;;;;;;5059467;28;20020;-46
2021/09/08 07:48:10;;;;;;;23.38;15.45;;;17.50;99.90;;;;;;5068010;28;20025;-46
2021/09/08 07:50:36;;;;;;;23.48;16.30;;;17.60;99.90;;;;;;5068805;28;20028;-46
2021/09/08 07:53:04;;;;;;;19.40;15.00;;;17.90;99.90;;;;;;5065925;28;20017;-45
2021/09/08 07:55:30;;;;;;;18.23;13.60;;;18.60;99.90;;;;;;5052622;28;20017;-45
2021/09/08 07:57:55;;;;;;;26.20;14.18;;;19.30;99.90;;;;;;5066072;28;20035;-46
2021/09/08 08:00:21;;;;;;;17.55;13.50;;;20.10;99.90;;;;;;5048676;28;20478;-46
2021/09/08 08:02:51;;;;;;;17.60;13.35;;;20.90;99.90;;;;;;5060293;28;20074;-46
2021/09/08 08:05:17;;;;;;;19.20;14.37;;;21.40;99.90;;;;;;5050471;28;20110;-47
2021/09/08 08:07:44;;;;;;;17.25;13.25;;;21.90;99.90;;;;;;5048134;28;20437;-45
2021/09/08 08:10:11;;;;;;;15.68;12.82;;;22.10;99.90;;;;;;5048531;28;20028;-46
2021/09/08 08:12:36;;;;;;;17.63;12.90;;;22.20;99.90;;;;;;5047175;28;20031;-49
2021/09/08 08:15:04;;;;;;;15.75;12.70;;;22.50;99.90;;;;;;5035990;28;20464;-49
2021/09/08 08:17:29;;;;;;;14.45;11.38;;;23.00;99.90;;;;;;5027956;28;20057;-47
2021/09/08 08:19:55;;;;;;;15.43;11.30;;;23.90;99.90;;;;;;5028177;28;20506;-49
2021/09/08 08:22:20;;;;;;;12.35;10.35;;;24.90;98.20;;;;;;5029019;28;20077;-47
2021/09/08 08:24:46;;;;;;;12.70;11.23;;;26.30;95.40;;;;;;5035671;28;20376;-47
2021/09/08 08:27:11;;;;;;;12.43;10.02;;;27.70;91.50;;;;;;5046512;28;20052;-47
2021/09/08 08:29:37;;;;;;;11.93;9.07;;;28.80;83.70;;;;;;5041068;28;20335;-49
2021/09/08 08:32:03;;;;;;;13.60;9.05;;;30.00;77.30;;;;;;5046919;28;20385;-47
2021/09/08 08:34:28;;;;;;;12.32;9.07;;;30.80;72.70;;;;;;5061390;28;20394;-47
2021/09/08 08:36:54;;;;;;;12.50;8.43;;;31.70;68.30;;;;;;5045360;28;20065;-49
2021/09/08 08:39:19;;;;;;;11.63;8.85;;;32.30;64.60;;;;;;5028261;28;20029;-48
2021/09/08 08:41:45;;;;;;;10.75;7.72;;;32.60;64.20;;;;;;5028173;28;20084;-49
2021/09/08 08:44:11;;;;;;;10.30;8.48;;;33.40;60.70;;;;;;5028076;28;20065;-48
2021/09/08 08:46:37;;;;;;;11.13;9.20;;;33.60;60.70;;;;;;5040006;28;20025;-50
2021/09/08 08:49:03;;;;;;;11.25;8.77;;;34.20;58.00;;;;;;5058193;28;20490;-49
2021/09/08 08:51:29;;;;;;;11.20;8.23;;;34.50;55.50;;;;;;5068342;28;20029;-48
2021/09/08 08:53:54;;;;;;;10.00;8.85;;;35.00;55.00;;;;;;5068051;28;20044;-50
2021/09/08 08:56:21;;;;;;;9.95;7.80;;;35.00;53.80;;;;;;5054311;28;20037;-48
2021/09/08 08:58:47;;;;;;;9.43;8.52;;;35.20;53.70;;;;;;5049456;28;20418;-50
2021/09/08 09:01:14;;;;;;;9.15;7.78;;;35.20;51.40;;;;;;5054104;28;20025;-50
2021/09/08 09:03:40;;;;;;;9.23;7.80;;;35.80;51.40;;;;;;5056065;28;20020;-50
2021/09/08 09:06:05;;;;;;;9.18;7.30;;;36.40;48.80;;;;;;5055074;28;20032;-49
2021/09/08 09:08:35;;;;;;;10.07;7.97;;;36.60;49.60;;;;;;5050422;28;20168;-48
2021/09/08 09:11:02;;;;;;;8.85;7.85;;;37.00;48.10;;;;;;5050891;28;20021;-49
2021/09/08 09:13:34;;;;;;;10.63;7.15;;;36.40;47.30;;;;;;5051858;28;20043;-50
2021/09/08 09:16:05;;;;;;;10.23;8.00;;;37.20;46.20;;;;;;5047711;28;20100;-50
2021/09/08 09:18:43;;;;;;;10.05;7.70;;;36.80;46.00;;;;;;5056654;28;20036;-49
2021/09/08 09:21:14;;;;;;;10.82;8.40;;;37.10;46.20;;;;;;5030246;28;20035;-48
2021/09/08 09:23:49;;;;;;;9.35;7.78;;;36.60;47.10;;;;;;5031451;28;20030;-49
2021/09/08 09:26:28;;;;;;;8.70;7.65;;;36.30;47.80;;;;;;5034165;28;20032;-48
2021/09/08 09:28:54;;;;;;;;;;;37.20;46.60;;;;;;5049018;28;20040;-47
2021/09/08 09:31:23;;;;;;;8.88;7.70;;;37.80;44.40;;;;;;5053437;28;19905;-47
2021/09/08 09:33:55;;;;;;;;;;;37.40;46.30;;;;;;5054375;28;20016;-50
2021/09/08 09:36:30;;;;;;;11.57;7.50;;;37.70;44.70;;;;;;5061304;28;20369;-50
2021/09/08 09:38:57;;;;;;;11.88;7.43;;;37.90;45.20;;;;;;5047859;28;20679;-49
2021/09/08 09:41:31;;;;;;;9.35;6.45;;;38.70;42.80;;;;;;5048170;28;20056;-49
2021/09/08 09:44:04;;;;;;;7.90;7.05;;;39.30;42.90;;;;;;5049294;28;20555;-48
2021/09/08 09:46:30;;;;;;;7.68;6.93;;;39.10;42.20;;;;;;5054387;28;20032;-48
2021/09/08 09:48:55;;;;;;;8.13;7.32;;;39.00;42.60;;;;;;5057596;28;20426;-48
2021/09/08 09:51:21;;;;;;;8.50;7.43;;;38.80;45.20;;;;;;5052492;28;20108;-46
2021/09/08 09:53:46;;;;;;;9.65;7.65;;;38.90;42.70;;;;;;5067532;28;20040;-49
2021/09/08 09:56:13;;;;;;;8.43;7.40;;;39.10;41.60;;;;;;5070586;28;20506;-47
2021/09/08 09:58:39;;;;;;;7.32;6.53;;;39.70;41.00;;;;;;5052643;28;20291;-49
2021/09/08 10:01:05;;;;;;;8.63;6.75;;;39.60;41.90;;;;;;5051591;28;20466;-47
2021/09/08 10:03:31;;;;;;;11.80;7.72;;;40.10;40.70;;;;;;5054977;28;20041;-47
2021/09/08 10:06:00;;;;;;;7.45;6.75;;;40.50;39.90;;;;;;5061985;28;20039;-47
2021/09/08 10:08:26;;;;;;;;;;;40.40;39.40;;;;;;5059718;28;20025;-47
2021/09/08 10:10:53;;;;;;;8.05;6.30;;;39.50;39.60;;;;;;5049039;28;20347;-48
2021/09/08 10:13:26;;;;;;;10.48;8.27;;;39.20;41.00;;;;;;5050283;28;20033;-47
2021/09/08 10:15:53;;;;;;;8.13;7.20;;;39.40;40.80;;;;;;5049800;28;20029;-47
2021/09/08 10:18:25;;;;;;;6.45;5.88;;;39.20;40.10;;;;;;5057339;28;20027;-47
2021/09/08 10:21:05;;;;;;;7.72;5.70;;;38.10;40.50;;;;;;5062097;28;20255;-47
2021/09/08 10:23:38;;;;;;;9.15;6.43;;;39.00;40.60;;;;;;5070201;28;20028;-48
2021/09/08 10:26:17;;;;;;;6.80;5.85;;;39.30;40.20;;;;;;5070032;28;20410;-48
2021/09/08 10:28:45;;;;;;;6.72;5.65;;;39.20;40.40;;;;;;5056193;28;20022;-47
2021/09/08 10:31:12;;;;;;;5.97;5.45;;;39.40;40.30;;;;;;5051748;28;20107;-47
2021/09/08 10:33:40;;;;;;;7.00;5.90;;;39.90;38.90;;;;;;5061701;28;20020;-49
2021/09/08 10:36:10;;;;;;;5.95;5.32;;;39.80;39.20;;;;;;5070077;28;20523;-46
2021/09/08 10:38:36;;;;;;;9.63;6.85;;;40.40;38.30;;;;;;5065639;28;20550;-46
2021/09/08 10:41:08;;;;;;;5.60;5.00;;;39.80;38.60;;;;;;5043911;28;20109;-46
2021/09/08 10:43:35;;;;;;;6.43;5.05;;;40.10;38.10;;;;;;5029897;28;20438;-46
2021/09/08 10:46:04;;;;;;;5.40;4.90;;;39.70;38.20;;;;;;5032435;28;20064;-47
2021/09/08 10:48:44;;;;;;;5.43;4.93;;;39.60;38.60;;;;;;5060387;28;20025;-47
2021/09/08 10:51:42;;;;;;;7.72;5.85;;;39.60;38.30;;;;;;5029241;28;20033;-46
2021/09/08 10:54:07;;;;;;;7.03;6.30;;;39.20;38.60;;;;;;5028390;28;20068;-46
2021/09/08 10:56:45;;;;;;;7.85;6.18;;;39.50;38.30;;;;;;5029056;28;20082;-46
2021/09/08 10:59:11;;;;;;;8.32;5.10;;;38.60;38.80;;;;;;5040549;28;20588;-47
2021/09/08 11:01:37;;;;;;;8.00;5.40;;;38.50;39.30;;;;;;5056438;28;20021;-47
2021/09/08 11:04:03;;;;;;;50.58;45.65;;;39.20;38.70;;;;;;5067285;28;20020;-46
2021/09/08 11:06:34;;;;;;;13.68;9.82;;;39.20;39.20;;;;;;5068492;28;20027;-47
2021/09/08 11:09:02;;;;;;;6.47;5.32;;;39.40;38.10;;;;;;5068843;28;20551;-47
2021/09/08 11:11:28;;;;;;;6.00;5.40;;;38.80;37.60;;;;;;5050248;28;20040;-46
2021/09/08 11:13:56;;;;;;;6.78;5.05;;;38.90;37.80;;;;;;5049029;28;20041;-48
2021/09/08 11:16:24;;;;;;;6.80;5.20;;;39.10;36.90;;;;;;5048570;28;20028;-48
2021/09/08 11:18:51;;;;;;;6.00;5.40;;;38.20;38.00;;;;;;5049349;28;20024;-46
2021/09/08 11:21:16;;;;;;;5.93;5.05;;;38.00;38.20;;;;;;5043494;28;20025;-47
2021/09/08 11:23:47;;;;;;;7.60;5.15;;;37.90;39.30;;;;;;5047257;28;20460;-47
2021/09/08 11:26:13;;;;;;;5.22;4.68;;;37.30;38.60;;;;;;5050061;28;20135;-46
2021/09/08 11:28:40;;;;;;;8.57;5.60;;;37.30;39.90;;;;;;5048737;28;20047;-46
2021/09/08 11:31:17;;;;;;;6.57;5.25;;;37.70;39.90;;;;;;5034642;28;20021;-47
2021/09/08 11:33:43;;;;;;;8.75;5.05;;;38.70;39.50;;;;;;5053884;28;20037;-47
2021/09/08 11:36:18;;;;;;;7.35;5.80;;;39.10;38.60;;;;;;5049196;28;20078;-47
2021/09/08 11:38:56;;;;;;;8.13;5.00;;;38.60;38.90;;;;;;5048967;28;20105;-46
2021/09/08 11:41:23;;;;;;;7.97;5.20;;;38.70;39.20;;;;;;5048551;28;20086;-46
2021/09/08 11:43:50;;;;;;;5.78;5.20;;;38.60;38.10;;;;;;5048537;28;20108;-46
2021/09/08 11:46:18;;;;;;;6.65;5.18;;;38.70;38.60;;;;;;5052809;28;20024;-47
2021/09/08 11:48:49;;;;;;;6.60;5.27;;;38.20;38.10;;;;;;5060646;28;20016;-46
2021/09/08 11:51:17;;;;;;;6.70;5.32;;;38.70;38.30;;;;;;5062569;28;20263;-47
2021/09/08 11:53:43;;;;;;;8.70;5.57;;;37.80;39.20;;;;;;5048785;28;20029;-46
2021/09/08 11:56:14;;;;;;;7.40;4.93;;;37.70;39.50;;;;;;5048745;28;20068;-47
2021/09/08 11:58:42;;;;;;;9.25;5.32;;;37.40;39.20;;;;;;5048242;28;20020;-46
2021/09/08 12:01:10;;;;;;;8.27;5.68;;;37.90;38.90;;;;;;5041446;28;20022;-46
2021/09/08 12:03:38;;;;;;;7.40;5.50;;;37.60;39.70;;;;;;5059856;28;20081;-49
2021/09/08 12:06:08;;;;;;;7.00;5.70;;;37.80;39.70;;;;;;5048753;28;20024;-46
2021/09/08 12:08:34;;;;;;;6.90;5.55;;;37.60;40.30;;;;;;5048283;28;20031;-47
2021/09/08 12:11:00;;;;;;;7.13;5.93;;;37.30;39.90;;;;;;5048627;28;20106;-46
2021/09/08 12:13:30;;;;;;;6.55;5.75;;;36.30;40.70;;;;;;5046474;28;20438;-45
2021/09/08 12:15:56;;;;;;;7.93;6.05;;;35.60;41.80;;;;;;5045737;28;20487;-46
2021/09/08 12:18:22;;;;;;;9.40;6.25;;;34.90;43.50;;;;;;5049623;28;20021;-46
2021/09/08 12:20:48;;;;;;;8.30;6.25;;;34.60;43.80;;;;;;5048584;28;20410;-46
2021/09/08 12:23:28;;;;;;;8.15;6.50;;;34.00;44.60;;;;;;5047661;28;20029;-45
2021/09/08 12:26:12;;;;;;;10.75;6.70;;;33.70;45.10;;;;;;5047450;28;20467;-46
2021/09/08 12:29:04;;;;;;;10.68;6.78;;;33.30;45.30;;;;;;5046425;28;20061;-48
2021/09/08 12:31:29;;;;;;;6.95;6.25;;;32.80;45.00;;;;;;5042044;28;20014;-48
2021/09/08 12:33:57;;;;;;;8.43;6.43;;;32.10;45.60;;;;;;5053174;28;20043;-45